This is the latest recevied weather packets stored in our database for station/object KG5VSR. If no packets are shown the sender has not sent any weather packets the latest 10 day(s).
| Time | Temp. | Humidity | Pressure | Rain* | Wind** | Luminosity | Snow |
|---|---|---|---|---|---|---|---|
| 1777826835 | 25.56° C | 48% | 1021.8 hPa | 0 mm | - | 823 W/m² | - |
| 1777825030 | 25.56° C | 49% | 1022.1 hPa | 0 mm | - | 831 W/m² | - |
| 1777823227 | 24.44° C | 51% | 1022.2 hPa | 0 mm | - | 762 W/m² | - |
| 1777821424 | 23.33° C | 53% | 1022 hPa | 0 mm | - | 632 W/m² | - |
| 1777819622 | 22.22° C | 56% | 1022 hPa | 0 mm | - | 523 W/m² | - |
| 1777817821 | 21.67° C | 62% | 1022.1 hPa | 0 mm | - | 421 W/m² | - |
| 1777816021 | 20° C | 65% | 1022.1 hPa | 0 mm | - | 271 W/m² | - |
| 1777814220 | 18.33° C | 72% | 1021.8 hPa | 0 mm | - | 143 W/m² | - |
| 1777812420 | 15° C | 84% | 1021.6 hPa | 0 mm | - | 63 W/m² | - |
| 1777810616 | 11.67° C | 93% | 1021.4 hPa | 0 mm | - | 20 W/m² | - |
| 1777808811 | 11.67° C | 92% | 1021.1 hPa | 0 mm | - | 4 W/m² | - |
| 1777807006 | 11.67° C | 90% | 1020.9 hPa | 0 mm | - | 0 W/m² | - |
| 1777805205 | 12.22° C | 87% | 1020.8 hPa | 0 mm | - | 0 W/m² | - |
| 1777803404 | 12.78° C | 85% | 1020.5 hPa | 0 mm | - | 0 W/m² | - |
| 1777801601 | 13.33° C | 84% | 1020.6 hPa | 0 mm | - | 0 W/m² | - |
| 1777799797 | 12.78° C | 86% | 1020.3 hPa | 0 mm | - | 0 W/m² | - |
| 1777797992 | 12.78° C | 85% | 1020.3 hPa | 0 mm | - | 0 W/m² | - |
| 1777796189 | 12.78° C | 84% | 1020.3 hPa | 0 mm | - | 0 W/m² | - |
| 1777794386 | 13.33° C | 81% | 1020.4 hPa | 0 mm | - | 0 W/m² | - |
| 1777792585 | 13.89° C | 77% | 1020.8 hPa | 0 mm | - | 0 W/m² | - |
| 1777790780 | 13.89° C | 77% | 1020.8 hPa | 0 mm | - | 0 W/m² | - |
| 1777788977 | 14.44° C | 74% | 1020.6 hPa | 0 mm | - | 0 W/m² | - |
| 1777787174 | 15.56° C | 70% | 1020.8 hPa | 0 mm | - | 0 W/m² | - |
| 1777785373 | 16.11° C | 67% | 1020.3 hPa | 0 mm | - | 0 W/m² | - |
| 1777783573 | 17.22° C | 64% | 1020.5 hPa | 0 mm | - | 0 W/m² | - |
* Rain latest hour (hover to see other rain measurements)
** Current wind speed in m/s (hover to see current wind gust speed)